Time;durP1;ratioP1;P1;durP2;ratioP2;P2;SDS_P1;SDS_P2;PMS_P1;PMS_P2;Temp;Humidity;BMP_temperature;BMP_pressure;BME280_temperature;BME280_humidity;BME280_pressure;Samples;Min_cycle;Max_cycle;Signal;HPM_P1;HPM_P2
2023/10/12 02:43:43;;;;;;;17.80;5.60;;;;;;;16.54;87.52;98557.38;106919;1312;544842;-53
2023/10/12 02:46:21;;;;;;;11.30;5.00;;;;;;;16.51;87.53;98552.70;107437;1295;22256;-54
2023/10/12 02:48:47;;;;;;;13.00;4.90;;;;;;;16.50;87.53;98552.75;107399;1295;22259;-46
2023/10/12 02:51:15;;;;;;;11.30;5.30;;;;;;;16.50;87.44;98556.10;107421;1288;22326;-50
2023/10/12 02:53:40;;;;;;;12.30;4.70;;;;;;;16.50;87.40;98557.39;107410;1312;22259;-48
2023/10/12 02:56:06;;;;;;;10.10;4.60;;;;;;;16.51;87.26;98549.70;107306;1288;130821;-53
2023/10/12 02:58:32;;;;;;;10.80;4.90;;;;;;;16.51;87.25;98551.11;107664;1292;22458;-50
2023/10/12 03:01:12;;;;;;;10.50;5.30;;;;;;;16.54;87.08;98550.33;107699;1289;22249;-51
2023/10/12 03:03:54;;;;;;;18.30;6.00;;;;;;;16.52;87.07;98546.97;107675;1291;22232;-56
2023/10/12 03:06:24;;;;;;;12.20;4.70;;;;;;;16.50;87.03;98546.59;107372;1304;22558;-48
2023/10/12 03:11:33;;;;;;;12.00;5.20;;;;;;;16.51;86.90;98544.59;107699;1310;22218;-51
2023/10/12 03:14:12;;;;;;;13.40;6.30;;;;;;;16.49;86.93;98544.60;107700;1310;22430;-51
2023/10/12 03:16:41;;;;;;;12.30;5.20;;;;;;;16.47;87.04;98540.69;107712;1291;22273;-48
2023/10/12 03:21:49;;;;;;;17.50;5.20;;;;;;;16.50;87.03;98540.05;107710;1310;22224;-50
2023/10/12 03:24:16;;;;;;;15.10;4.90;;;;;;;16.53;87.01;98538.59;108016;1286;22183;-49
2023/10/12 03:26:55;;;;;;;18.60;5.20;;;;;;;16.53;87.09;98541.80;108006;1284;22987;-52
2023/10/12 03:29:21;;;;;;;9.90;5.10;;;;;;;16.54;87.13;98539.43;108016;1285;23092;-49
2023/10/12 03:37:03;;;;;;;13.20;4.90;;;;;;;16.56;87.10;98540.98;107991;1307;23013;-54
2023/10/12 03:39:43;;;;;;;13.90;4.90;;;;;;;16.57;87.14;98543.31;108029;1285;22479;-50
2023/10/12 03:42:42;;;;;;;13.20;5.40;;;;;;;16.58;87.04;98540.63;107998;1289;22456;-51
2023/10/12 03:45:08;;;;;;;17.30;5.60;;;;;;;16.58;87.10;98550.20;108009;1307;22830;-44
2023/10/12 03:47:54;;;;;;;20.10;5.30;;;;;;;16.58;87.22;98551.41;108002;1285;22231;-55
2023/10/12 03:50:20;;;;;;;19.10;5.50;;;;;;;16.56;87.31;98540.59;107997;1307;22276;-48
2023/10/12 03:52:52;;;;;;;10.90;4.90;;;;;;;16.54;87.25;98545.35;107978;1307;22324;-48
2023/10/12 03:55:27;;;;;;;16.40;6.50;;;;;;;16.51;87.37;98541.52;108004;1307;22297;-47
2023/10/12 03:58:06;;;;;;;15.10;5.30;;;;;;;16.48;87.52;98534.04;108035;1285;23295;-55
2023/10/12 04:00:35;;;;;;;17.50;5.40;;;;;;;16.46;87.57;98539.69;107677;1295;22329;-49
2023/10/12 04:03:05;;;;;;;11.00;5.10;;;;;;;16.45;87.33;98535.16;107783;1304;22535;-45
2023/10/12 04:18:42;;;;;;;10.90;4.40;;;;;;;16.34;88.02;98516.25;107809;1308;22923;-53
2023/10/12 04:21:10;;;;;;;14.50;5.20;;;;;;;16.31;87.97;98511.90;107836;1285;22252;-47
2023/10/12 04:23:46;;;;;;;7.10;4.50;;;;;;;16.29;87.79;98501.46;107823;1286;22968;-54
2023/10/12 04:28:50;;;;;;;15.40;5.20;;;;;;;16.23;88.44;98500.09;107795;1308;22223;-54
2023/10/12 04:31:32;;;;;;;16.60;5.30;;;;;;;16.22;88.36;98497.35;107827;1285;22222;-53
2023/10/12 04:36:34;;;;;;;11.90;5.10;;;;;;;16.19;88.48;98497.43;107804;1308;22376;-55
2023/10/12 04:39:11;;;;;;;17.00;5.60;;;;;;;16.20;88.43;98496.31;107829;1286;22236;-52
2023/10/12 04:46:49;;;;;;;16.30;5.20;;;;;;;16.15;88.45;98491.10;107843;1308;22505;-50
2023/10/12 04:51:49;;;;;;;8.60;4.50;;;;;;;16.09;88.82;98475.86;106659;1308;24368;-43
2023/10/12 04:54:23;;;;;;;12.50;5.00;;;;;;;16.08;88.70;98479.84;107266;1308;22237;-51
2023/10/12 04:59:26;;;;;;;18.70;5.20;;;;;;;16.04;88.63;98498.14;107845;1308;23788;-48
2023/10/12 05:09:51;;;;;;;8.90;5.00;;;;;;;16.01;88.78;98516.37;107889;1308;23084;-47
2023/10/12 05:12:17;;;;;;;20.30;4.70;;;;;;;16.01;88.67;98505.39;107815;1291;22299;-48
2023/10/12 05:14:42;;;;;;;10.10;5.20;;;;;;;16.03;88.72;98506.34;107797;1308;22472;-49
2023/10/12 05:17:08;;;;;;;12.60;5.00;;;;;;;16.04;88.58;98508.55;107792;1308;22231;-47
2023/10/12 05:19:34;;;;;;;12.90;5.30;;;;;;;16.06;88.49;98509.24;107816;1308;22129;-52
2023/10/12 05:22:00;;;;;;;15.90;5.40;;;;;;;16.07;88.42;98508.98;107815;1308;22254;-44
2023/10/12 05:24:25;;;;;;;12.20;5.20;;;;;;;16.07;88.41;98514.21;107797;1308;22313;-48
2023/10/12 05:26:55;;;;;;;14.30;5.20;;;;;;;16.07;88.30;98514.22;107817;1308;22484;-49
2023/10/12 05:32:05;;;;;;;14.50;5.70;;;;;;;16.10;88.08;98528.29;107826;1308;22196;-54
2023/10/12 05:39:46;;;;;;;14.10;5.60;;;;;;;16.12;87.90;98534.88;107801;1308;22290;-46
2023/10/12 05:42:15;;;;;;;17.30;5.70;;;;;;;16.12;87.75;98540.83;107801;1288;22440;-55
2023/10/12 05:44:44;;;;;;;16.20;5.50;;;;;;;16.11;87.66;98547.27;107833;1287;22238;-46
2023/10/12 05:47:13;;;;;;;17.80;5.40;;;;;;;16.16;87.46;98552.02;107820;1291;22325;-47
2023/10/12 05:49:40;;;;;;;17.50;5.30;;;;;;;16.16;87.19;98551.63;107810;1291;22205;-53
2023/10/12 05:52:09;;;;;;;19.60;5.10;;;;;;;16.19;86.99;98556.69;107810;1308;22464;-46
2023/10/12 05:54:40;;;;;;;18.10;5.50;;;;;;;16.23;86.87;98562.16;107835;1308;22434;-50
2023/10/12 05:57:29;;;;;;;13.70;5.30;;;;;;;16.24;86.77;98559.03;107813;1308;22242;-52
2023/10/12 05:59:52;;;;;;;17.30;4.90;;;;;;;16.26;86.62;98553.23;107777;1308;22776;-50
2023/10/12 06:02:17;;;;;;;15.00;4.80;;;;;;;16.28;86.53;98555.33;107843;1308;22230;-52
2023/10/12 06:04:44;;;;;;;12.90;4.90;;;;;;;16.29;86.41;98556.98;107806;1288;22249;-48
2023/10/12 06:07:10;;;;;;;14.20;5.50;;;;;;;16.31;86.46;98557.20;107824;1288;22241;-47
2023/10/12 06:09:35;;;;;;;15.70;5.40;;;;;;;16.31;86.34;98552.45;107843;1289;22407;-52
2023/10/12 06:12:12;;;;;;;13.50;5.70;;;;;;;16.31;86.12;98553.46;107825;1288;22524;-52
2023/10/12 06:14:38;;;;;;;16.80;5.40;;;;;;;16.32;85.97;98553.96;107812;1308;23122;-53
2023/10/12 06:17:07;;;;;;;16.70;5.50;;;;;;;16.33;85.93;98554.20;107844;1285;22234;-51
2023/10/12 06:19:36;;;;;;;11.90;5.50;;;;;;;16.34;85.93;98561.50;107817;1286;22368;-51
2023/10/12 06:22:13;;;;;;;14.90;5.20;;;;;;;16.36;85.92;98569.16;107824;1291;22227;-54
2023/10/12 06:24:44;;;;;;;12.60;5.10;;;;;;;16.37;85.85;98576.35;107779;1300;22330;-46
2023/10/12 06:27:30;;;;;;;15.80;5.00;;;;;;;16.36;85.63;98580.95;107812;1288;22896;-51
2023/10/12 06:29:55;;;;;;;23.10;5.50;;;;;;;16.39;85.61;98583.84;107814;1308;22229;-48
2023/10/12 06:32:31;;;;;;;20.30;5.30;;;;;;;16.42;85.45;98582.05;107628;1308;22318;-47
2023/10/12 06:45:51;;;;;;;17.10;5.60;;;;;;;16.64;84.65;98604.98;107803;1308;22437;-46
2023/10/12 06:51:03;;;;;;;15.30;5.10;;;;;;;16.74;83.93;98603.20;107826;1308;22428;-48
2023/10/12 06:53:36;;;;;;;14.40;5.30;;;;;;;16.81;83.81;98601.89;107802;1308;22243;-49
2023/10/12 06:58:40;;;;;;;11.10;4.90;;;;;;;16.95;83.34;98609.64;107823;1308;22969;-47
2023/10/12 07:01:26;;;;;;;14.90;4.40;;;;;;;16.99;82.87;98614.89;107823;1289;22957;-51
2023/10/12 07:03:52;;;;;;;11.70;4.30;;;;;;;17.06;82.28;98622.43;107673;1294;22237;-48
2023/10/12 07:06:18;;;;;;;15.20;4.40;;;;;;;17.16;82.50;98623.11;107823;1291;22476;-53
2023/10/12 07:08:46;;;;;;;17.90;4.50;;;;;;;17.24;81.58;98616.49;107810;1308;23178;-49
2023/10/12 07:11:14;;;;;;;14.30;4.50;;;;;;;17.34;81.93;98612.70;107830;1291;22310;-47
2023/10/12 07:13:41;;;;;;;;;;;;;;;17.43;81.25;98613.50;107825;1308;23167;-49
2023/10/12 07:16:09;;;;;;;15.50;4.80;;;;;;;17.48;80.45;98613.37;107812;1285;22228;-52
2023/10/12 07:18:43;;;;;;;15.50;4.40;;;;;;;17.52;79.74;98615.61;107823;1291;22409;-48
2023/10/12 07:21:20;;;;;;;13.50;4.40;;;;;;;17.56;79.40;98621.48;107795;1308;22422;-56
2023/10/12 07:23:56;;;;;;;13.40;5.00;;;;;;;17.59;79.69;98634.09;107817;1308;22217;-48
2023/10/12 07:26:23;;;;;;;12.60;4.70;;;;;;;17.62;79.87;98633.97;107811;1308;22218;-55
2023/10/12 07:28:50;;;;;;;14.10;4.40;;;;;;;17.66;79.69;98622.63;107817;1308;22265;-47
2023/10/12 07:33:59;;;;;;;13.80;4.70;;;;;;;17.74;78.38;98630.05;107813;1308;22248;-53
2023/10/12 07:36:44;;;;;;;12.10;5.00;;;;;;;17.81;78.66;98636.42;107814;1289;22547;-48
2023/10/12 07:39:20;;;;;;;21.60;4.90;;;;;;;17.89;78.28;98641.42;107810;1288;22793;-52
2023/10/12 07:42:02;;;;;;;20.60;4.40;;;;;;;17.89;76.70;98627.39;107800;1308;22430;-52
2023/10/12 07:44:41;;;;;;;17.70;5.20;;;;;;;17.93;77.00;98632.31;107798;1292;23131;-54
2023/10/12 07:47:14;;;;;;;16.60;4.50;;;;;;;17.98;77.57;98640.30;107794;1288;22429;-49
2023/10/12 07:49:48;;;;;;;14.90;4.80;;;;;;;18.01;77.22;98652.77;107808;1292;22532;-47
2023/10/12 07:57:18;;;;;;;12.50;4.20;;;;;;;18.08;76.83;98672.77;107819;1308;22756;-55
2023/10/12 08:05:42;;;;;;;9.90;3.70;;;;;;;18.19;76.40;98666.18;107812;1308;22701;-48
2023/10/12 08:15:58;;;;;;;11.70;4.20;;;;;;;18.36;74.45;98670.52;107829;1308;22258;-49
2023/10/12 08:21:32;;;;;;;18.10;4.40;;;;;;;18.42;74.65;98678.65;107802;1308;22246;-47
2023/10/12 08:24:09;;;;;;;10.70;4.20;;;;;;;18.43;73.60;98681.27;107794;1308;22225;-50
2023/10/12 08:29:17;;;;;;;11.50;3.90;;;;;;;18.54;73.10;98686.57;107820;1308;22399;-49
2023/10/12 08:31:43;;;;;;;13.00;4.30;;;;;;;18.62;73.09;98685.11;107838;1292;22318;-50
2023/10/12 08:40:01;;;;;;;12.60;4.00;;;;;;;18.78;72.63;98692.00;107822;1308;22233;-48
2023/10/12 08:42:37;;;;;;;15.80;4.30;;;;;;;18.82;72.93;98680.94;107806;1308;22328;-46
2023/10/12 08:45:09;;;;;;;10.00;4.80;;;;;;;18.88;73.04;98686.96;107816;1289;22398;-53
2023/10/12 08:50:08;;;;;;;11.90;4.20;;;;;;;18.95;72.25;98697.64;107821;1304;22280;-49
2023/10/12 08:52:38;;;;;;;15.90;4.80;;;;;;;18.95;71.16;98706.41;107797;1288;22401;-47
2023/10/12 08:55:12;;;;;;;12.20;4.30;;;;;;;19.04;71.41;98704.89;107787;1308;22464;-52
2023/10/12 08:57:49;;;;;;;14.40;4.30;;;;;;;19.21;70.95;98712.46;107825;1288;22431;-48
2023/10/12 09:02:52;;;;;;;14.40;4.50;;;;;;;19.64;70.37;98717.88;107781;1308;22232;-50
2023/10/12 09:05:24;;;;;;;17.60;4.60;;;;;;;19.78;70.43;98709.21;107785;1308;22243;-49
2023/10/12 09:08:05;;;;;;;11.20;4.20;;;;;;;19.84;69.50;98718.25;107806;1289;22907;-48
2023/10/12 09:10:55;;;;;;;12.40;4.40;;;;;;;19.84;68.81;98722.13;107801;1308;22231;-48
2023/10/12 09:13:26;;;;;;;11.60;3.70;;;;;;;19.77;67.79;98728.35;107691;1296;22414;-53
2023/10/12 09:15:56;;;;;;;16.00;4.30;;;;;;;19.67;67.98;98736.83;107699;1309;22215;-48
2023/10/12 09:18:33;;;;;;;11.00;3.70;;;;;;;19.57;68.05;98736.23;107749;1288;22300;-47
2023/10/12 09:31:13;;;;;;;14.70;4.30;;;;;;;18.94;71.01;98763.88;107740;1301;22404;-49
2023/10/12 09:33:54;;;;;;;22.60;4.80;;;;;;;18.74;71.99;98769.83;107794;1288;22322;-53
2023/10/12 09:36:20;;;;;;;17.00;4.20;;;;;;;18.53;73.78;98782.64;107747;1301;22367;-51
2023/10/12 09:38:46;;;;;;;15.10;4.40;;;;;;;18.40;75.03;98797.95;107758;1292;22203;-52
2023/10/12 09:41:16;;;;;;;19.20;4.40;;;;;;;18.27;75.99;98807.20;107748;1295;22443;-52
2023/10/12 09:43:44;;;;;;;12.90;4.80;;;;;;;18.09;77.51;98811.17;107829;1307;22298;-47
2023/10/12 09:46:13;;;;;;;13.30;4.60;;;;;;;17.93;78.73;98822.71;107796;1301;22967;-50
2023/10/12 09:48:41;;;;;;;11.20;4.30;;;;;;;17.77;79.19;98827.42;107880;1289;22315;-52
2023/10/12 09:51:15;;;;;;;15.70;5.50;;;;;;;17.60;80.30;98830.90;107878;1291;22462;-44
2023/10/12 09:53:44;;;;;;;16.00;5.10;;;;;;;17.45;80.65;98839.88;107782;1302;22269;-46
2023/10/12 09:56:15;;;;;;;15.50;4.40;;;;;;;17.30;82.12;98838.61;107848;1302;22436;-52
2023/10/12 09:58:51;;;;;;;15.30;5.40;;;;;;;17.05;85.71;98840.81;107804;1305;22347;-52
2023/10/12 10:01:23;;;;;;;18.20;5.00;;;;;;;16.88;87.83;98838.59;107812;1291;23144;-53
2023/10/12 10:03:52;;;;;;;12.70;5.20;;;;;;;16.74;89.21;98837.55;107803;1301;22898;-47
2023/10/12 10:06:28;;;;;;;15.60;5.70;;;;;;;16.65;90.84;98828.24;107896;1298;22258;-48
2023/10/12 10:11:40;;;;;;;18.00;5.90;;;;;;;16.56;92.78;98821.61;107815;1308;22401;-48
2023/10/12 10:14:09;;;;;;;19.20;6.50;;;;;;;16.54;90.67;98820.02;107922;1288;23186;-48
2023/10/12 10:16:46;;;;;;;12.20;5.20;;;;;;;16.49;92.39;98817.98;107782;1292;22426;-55
2023/10/12 10:19:16;;;;;;;18.50;6.50;;;;;;;16.38;95.83;98820.01;107824;1292;23116;-51
2023/10/12 10:22:04;;;;;;;21.50;6.40;;;;;;;16.31;96.64;98817.89;107874;1299;22478;-52
2023/10/12 10:24:57;;;;;;;21.80;7.10;;;;;;;16.25;97.11;98815.95;107684;1295;22302;-51
2023/10/12 10:27:34;;;;;;;19.20;5.80;;;;;;;16.18;97.02;98816.06;107838;1298;22488;-51
2023/10/12 10:30:24;;;;;;;13.80;6.30;;;;;;;16.09;96.48;98810.27;107896;1307;22441;-51
2023/10/12 10:33:12;;;;;;;13.20;6.60;;;;;;;16.03;98.77;98801.05;107809;1289;23087;-52
2023/10/12 10:35:59;;;;;;;16.70;6.90;;;;;;;16.00;99.51;98801.70;107824;1289;22301;-48
2023/10/12 10:38:34;;;;;;;17.70;6.50;;;;;;;15.98;99.50;98807.14;107726;1290;22102;-50
2023/10/12 10:41:07;;;;;;;12.80;5.70;;;;;;;15.95;99.75;98802.27;107847;1308;22310;-56
2023/10/12 10:43:39;;;;;;;21.00;6.90;;;;;;;15.89;100.00;98802.79;107840;1307;22234;-52
2023/10/12 10:46:13;;;;;;;11.30;5.50;;;;;;;15.82;100.00;98806.18;107814;1304;22969;-52
2023/10/12 10:48:39;;;;;;;20.20;5.60;;;;;;;15.79;100.00;98809.62;107882;1292;22362;-47
2023/10/12 10:51:18;;;;;;;20.00;5.90;;;;;;;15.76;100.00;98802.81;107857;1299;23300;-48
2023/10/12 10:53:50;;;;;;;15.60;5.40;;;;;;;15.72;100.00;98809.80;107838;1289;22524;-48
2023/10/12 10:56:16;;;;;;;15.50;5.10;;;;;;;15.69;100.00;98809.40;107852;1307;22240;-50
2023/10/12 10:58:45;;;;;;;12.70;5.10;;;;;;;15.68;100.00;98801.15;107816;1307;22230;-52
2023/10/12 11:01:12;;;;;;;11.80;4.90;;;;;;;15.66;100.00;98790.14;107826;1301;22464;-51
2023/10/12 11:03:39;;;;;;;12.90;5.40;;;;;;;15.64;100.00;98791.71;107876;1307;22880;-54
2023/10/12 11:06:08;;;;;;;8.50;4.40;;;;;;;15.64;99.99;98801.11;107766;1291;22417;-51
2023/10/12 11:08:34;;;;;;;14.40;4.40;;;;;;;15.65;100.00;98805.67;107880;1301;22961;-51
2023/10/12 11:13:33;;;;;;;12.40;5.00;;;;;;;15.71;100.00;98799.48;107790;1307;22976;-48
2023/10/12 11:16:20;;;;;;;13.00;4.60;;;;;;;15.75;100.00;98800.38;107884;1307;22854;-48
2023/10/12 11:18:47;;;;;;;8.60;4.20;;;;;;;15.76;100.00;98799.98;107808;1292;22456;-52
2023/10/12 11:21:14;;;;;;;12.50;4.70;;;;;;;15.71;100.00;98795.40;107866;1292;22337;-46
2023/10/12 11:23:39;;;;;;;7.30;3.70;;;;;;;15.72;100.00;98796.23;107886;1289;22271;-51
2023/10/12 11:26:04;;;;;;;14.10;4.40;;;;;;;15.70;100.00;98793.58;107800;1302;22480;-49
2023/10/12 11:28:30;;;;;;;17.60;5.10;;;;;;;15.71;100.00;98792.79;107907;1304;22127;-47
2023/10/12 11:31:07;;;;;;;10.60;4.40;;;;;;;15.71;100.00;98790.28;107819;1307;22329;-47
2023/10/12 11:33:34;;;;;;;6.60;3.90;;;;;;;15.71;100.00;98792.73;107838;1308;22460;-52
2023/10/12 11:36:03;;;;;;;11.50;4.80;;;;;;;15.68;100.00;98794.91;107910;1302;22418;-55
2023/10/12 11:38:29;;;;;;;5.60;4.20;;;;;;;15.68;100.00;98802.52;107762;1301;22321;-55
2023/10/12 11:40:55;;;;;;;13.80;4.70;;;;;;;15.69;100.00;98804.20;107794;1304;22476;-52
2023/10/12 11:43:43;;;;;;;12.80;5.50;;;;;;;15.68;100.00;98801.26;107842;1302;22455;-48
2023/10/12 11:46:08;;;;;;;13.70;5.40;;;;;;;15.67;100.00;98803.68;107794;1299;22466;-51
2023/10/12 11:48:34;;;;;;;20.60;6.20;;;;;;;15.64;100.00;98807.11;107804;1289;22873;-50
2023/10/12 11:51:00;;;;;;;12.10;5.40;;;;;;;15.63;100.00;98798.60;107805;1289;22241;-42
2023/10/12 11:53:26;;;;;;;12.50;5.80;;;;;;;15.63;100.00;98798.57;107865;1298;22227;-54
2023/10/12 11:56:10;;;;;;;16.50;6.00;;;;;;;15.67;100.00;98806.74;107892;1307;23109;-53
2023/10/12 11:58:36;;;;;;;16.60;6.30;;;;;;;15.70;100.00;98805.91;107730;1292;22350;-50
2023/10/12 12:01:01;;;;;;;12.60;5.80;;;;;;;15.71;100.00;98812.52;107869;1308;22246;-50
2023/10/12 12:03:26;;;;;;;15.20;6.60;;;;;;;15.71;100.00;98812.73;107784;1301;22434;-48
2023/10/12 12:05:52;;;;;;;17.30;6.60;;;;;;;15.72;100.00;98806.79;107768;1288;22241;-51
2023/10/12 12:08:19;;;;;;;12.80;6.30;;;;;;;15.74;100.00;98806.99;107431;1299;22569;-47
2023/10/12 12:10:53;;;;;;;11.60;6.50;;;;;;;15.78;100.00;98809.36;107833;1289;22522;-48
2023/10/12 12:13:20;;;;;;;15.50;6.20;;;;;;;15.79;100.00;98811.44;107824;1289;22375;-49
2023/10/12 12:15:46;;;;;;;12.70;6.50;;;;;;;15.78;100.00;98815.70;107876;1304;22250;-43
2023/10/12 12:18:17;;;;;;;10.80;6.60;;;;;;;15.78;100.00;98816.81;107776;1302;22437;-48
2023/10/12 12:20:44;;;;;;;17.90;6.50;;;;;;;15.72;100.00;98820.39;107895;1304;23285;-45
2023/10/12 12:23:12;;;;;;;14.30;6.60;;;;;;;15.71;100.00;98820.50;107834;1299;22446;-50
2023/10/12 12:25:39;;;;;;;14.90;6.40;;;;;;;15.70;100.00;98824.15;107840;1289;23134;-52
2023/10/12 12:28:07;;;;;;;12.90;7.00;;;;;;;15.68;100.00;98824.64;107900;1296;23344;-49
2023/10/12 12:30:39;;;;;;;13.70;6.70;;;;;;;15.67;100.00;98824.38;107794;1304;22406;-50
2023/10/12 12:33:15;;;;;;;13.10;6.00;;;;;;;15.66;100.00;98823.62;107856;1302;22311;-48
2023/10/12 12:35:41;;;;;;;16.80;7.00;;;;;;;15.62;100.00;98822.84;107609;1287;22548;-53
2023/10/12 12:38:17;;;;;;;13.50;7.00;;;;;;;15.61;100.00;98823.32;107795;1302;22296;-49
2023/10/12 12:40:45;;;;;;;14.70;7.20;;;;;;;15.59;100.00;98822.40;107549;1308;24264;-51
2023/10/12 12:43:10;;;;;;;;;;;;;;;15.60;100.00;98818.80;107442;1299;22553;-52
2023/10/12 12:45:35;;;;;;;16.60;6.90;;;;;;;15.59;100.00;98813.20;107279;1308;22616;-52
2023/10/12 12:48:02;;;;;;;18.20;7.00;;;;;;;15.57;100.00;98812.84;107582;1286;22441;-50
2023/10/12 12:50:28;;;;;;;17.80;7.40;;;;;;;15.56;100.00;98816.28;107849;1298;22248;-50
2023/10/12 12:52:54;;;;;;;15.00;7.20;;;;;;;15.54;100.00;98817.73;107879;1290;23038;-50
2023/10/12 12:55:22;;;;;;;19.50;7.00;;;;;;;15.53;100.00;98817.63;107898;1292;23421;-49
2023/10/12 12:57:47;;;;;;;;;;;;;;;15.51;100.00;98806.83;107649;1289;22585;-49
2023/10/12 13:00:19;;;;;;;12.70;6.30;;;;;;;15.51;100.00;98786.30;107510;1289;22256;-46
2023/10/12 13:02:46;;;;;;;11.10;6.40;;;;;;;15.50;100.00;98780.94;107880;1302;23312;-50
2023/10/12 13:05:11;;;;;;;14.80;6.80;;;;;;;15.45;100.00;98782.80;107857;1307;22428;-54
2023/10/12 13:07:37;;;;;;;15.00;6.70;;;;;;;15.47;100.00;98805.04;107185;1289;22237;-55
2023/10/12 13:10:06;;;;;;;22.50;7.50;;;;;;;15.46;100.00;98817.98;107340;1290;22655;-49
2023/10/12 13:12:32;;;;;;;16.30;6.80;;;;;;;15.45;100.00;98824.27;107530;1307;22712;-53
2023/10/12 13:15:00;;;;;;;17.80;6.60;;;;;;;15.43;100.00;98827.80;107466;1291;22611;-52
2023/10/12 13:17:32;;;;;;;17.00;7.00;;;;;;;15.40;100.00;98828.55;107868;1305;22302;-54
2023/10/12 13:20:00;;;;;;;14.00;6.80;;;;;;;15.40;100.00;98832.09;107787;1286;22965;-52
2023/10/12 13:22:26;;;;;;;21.70;6.90;;;;;;;15.40;100.00;98834.98;107425;1299;22991;-50
2023/10/12 13:24:56;;;;;;;16.30;7.10;;;;;;;15.40;100.00;98820.98;107798;1307;22311;-51
2023/10/12 13:27:24;;;;;;;12.50;6.60;;;;;;;15.43;100.00;98820.23;107391;1292;25323;-47
2023/10/12 13:29:50;;;;;;;12.20;6.60;;;;;;;15.39;100.00;98830.58;107655;1305;22553;-49
2023/10/12 13:32:17;;;;;;;14.60;7.10;;;;;;;15.41;100.00;98837.17;107212;1301;22559;-47
2023/10/12 13:34:43;;;;;;;14.70;6.70;;;;;;;15.42;100.00;98841.62;107610;1301;22469;-50
2023/10/12 13:37:08;;;;;;;13.20;6.50;;;;;;;15.43;100.00;98841.08;107163;1307;22570;-50
2023/10/12 13:39:34;;;;;;;15.10;7.30;;;;;;;15.43;100.00;98849.38;107166;1301;22558;-46
2023/10/12 13:41:59;;;;;;;12.10;6.60;;;;;;;15.42;100.00;98848.01;107315;1290;22556;-50
2023/10/12 13:44:25;;;;;;;12.90;6.70;;;;;;;15.42;100.00;98845.39;107180;1305;22541;-58
2023/10/12 13:46:51;;;;;;;12.30;6.50;;;;;;;15.43;100.00;98851.67;107673;1302;22589;-49
2023/10/12 13:49:17;;;;;;;12.40;6.50;;;;;;;15.40;100.00;98848.69;107130;1292;22555;-44
2023/10/12 13:51:47;;;;;;;14.60;6.20;;;;;;;15.41;100.00;98848.59;107090;1292;22562;-49
2023/10/12 13:54:14;;;;;;;12.90;6.60;;;;;;;15.43;100.00;98851.48;107736;1307;22442;-52
2023/10/12 13:56:39;;;;;;;12.50;6.60;;;;;;;15.44;100.00;98852.63;107207;1288;25313;-47
2023/10/12 13:59:09;;;;;;;11.50;6.20;;;;;;;15.44;100.00;98851.35;107722;1301;22247;-53
2023/10/12 14:01:36;;;;;;;17.40;6.40;;;;;;;15.48;100.00;98849.11;107557;1301;22567;-49
2023/10/12 14:04:19;;;;;;;12.70;6.60;;;;;;;15.49;100.00;98841.24;107478;1307;22221;-49
2023/10/12 14:06:47;;;;;;;16.10;6.70;;;;;;;15.49;100.00;98844.22;107818;1292;22264;-51
2023/10/12 14:09:13;;;;;;;17.30;6.40;;;;;;;15.51;100.00;98852.20;107825;1307;23143;-53
2023/10/12 14:11:39;;;;;;;11.70;6.90;;;;;;;15.52;100.00;98857.64;107865;1304;22232;-50
2023/10/12 14:14:09;;;;;;;10.20;6.60;;;;;;;15.52;100.00;98857.94;107804;1289;22450;-46
2023/10/12 14:16:34;;;;;;;13.40;6.50;;;;;;;15.53;100.00;98861.41;107874;1289;22203;-49
2023/10/12 14:19:00;;;;;;;13.60;7.10;;;;;;;15.55;100.00;98865.47;107810;1307;22968;-51
2023/10/12 14:21:29;;;;;;;11.50;7.20;;;;;;;15.55;100.00;98864.07;107849;1289;22259;-51
2023/10/12 14:23:58;;;;;;;16.90;6.70;;;;;;;15.54;100.00;98867.10;107858;1304;23105;-50
2023/10/12 14:26:24;;;;;;;15.80;6.00;;;;;;;15.55;100.00;98866.89;107807;1307;22424;-48
2023/10/12 14:28:50;;;;;;;15.00;6.50;;;;;;;15.53;100.00;98868.44;107899;1286;23055;-55
2023/10/12 14:31:20;;;;;;;13.90;6.30;;;;;;;15.52;100.00;98867.50;107840;1307;22445;-49
2023/10/12 14:33:45;;;;;;;16.50;7.40;;;;;;;15.54;100.00;98863.64;107830;1302;22285;-52
2023/10/12 14:36:11;;;;;;;11.00;6.10;;;;;;;15.56;100.00;98859.25;107862;1285;22242;-53
2023/10/12 14:38:41;;;;;;;14.30;6.20;;;;;;;15.53;100.00;98863.49;107820;1292;22236;-46
2023/10/12 14:41:09;;;;;;;14.90;6.50;;;;;;;15.52;100.00;98860.64;107826;1289;22713;-46
2023/10/12 14:43:36;;;;;;;15.10;6.50;;;;;;;15.50;100.00;98856.92;107785;1293;22451;-51
2023/10/12 14:46:03;;;;;;;14.50;6.20;;;;;;;15.50;100.00;98850.65;107807;1285;22683;-53
2023/10/12 14:48:28;;;;;;;11.60;6.80;;;;;;;15.49;100.00;98852.23;107892;1302;22397;-53
2023/10/12 14:51:48;;;;;;;18.00;6.60;;;;;;;15.47;100.00;98860.69;107728;1307;23131;-51
2023/10/12 14:53:50;;;;;;;14.10;7.50;;;;;;;15.44;100.00;98864.79;107670;1302;22317;-46
2023/10/12 14:56:23;;;;;;;;;;;;;;;15.45;100.00;98871.10;107770;1292;193720;-52
2023/10/12 14:58:50;;;;;;;13.00;6.80;;;;;;;15.43;100.00;98871.59;107851;1301;23123;-54
2023/10/12 15:01:17;;;;;;;15.20;6.90;;;;;;;15.41;100.00;98875.98;107509;1291;22308;-51
2023/10/12 15:03:45;;;;;;;13.90;7.10;;;;;;;15.39;100.00;98874.38;107772;1307;22425;-51
2023/10/12 15:06:12;;;;;;;14.20;6.90;;;;;;;15.37;100.00;98872.12;107784;1308;22973;-51
2023/10/12 15:08:38;;;;;;;13.80;7.30;;;;;;;15.35;100.00;98870.85;107838;1285;22443;-49
2023/10/12 15:11:05;;;;;;;17.10;6.60;;;;;;;15.34;100.00;98868.79;107785;1308;22278;-48
2023/10/12 15:13:32;;;;;;;12.80;6.90;;;;;;;15.32;100.00;98870.35;107667;1285;22647;-49
2023/10/12 15:15:58;;;;;;;21.60;7.60;;;;;;;15.31;100.00;98867.80;107535;1301;22598;-49
2023/10/12 15:18:23;;;;;;;17.00;7.60;;;;;;;15.29;100.00;98869.04;107804;1288;22244;-51
2023/10/12 15:20:49;;;;;;;16.20;7.30;;;;;;;15.26;100.00;98868.87;107752;1290;23458;-56
